sensor_id;sensor_type;location;lat;lon;timestamp;pressure;altitude;pressure_sealevel;temperature;humidity
25232;BME280;13176;51.140;6.290;2023-05-01T00:01:39;100796.53;;;15.60;53.41
25232;BME280;13176;51.140;6.290;2023-05-01T00:04:05;100874.56;;;16.13;53.37
25232;BME280;13176;51.140;6.290;2023-05-01T00:06:32;100917.63;;;16.38;53.07
25232;BME280;13176;51.140;6.290;2023-05-01T00:08:59;100853.31;;;15.93;53.17
25232;BME280;13176;51.140;6.290;2023-05-01T00:11:25;100946.19;;;16.50;53.47
25232;BME280;13176;51.140;6.290;2023-05-01T00:13:52;101016.00;;;16.89;53.36
25232;BME280;13176;51.140;6.290;2023-05-01T00:16:19;100923.94;;;16.32;53.86
25232;BME280;13176;51.140;6.290;2023-05-01T00:18:46;101004.03;;;16.79;53.97
25232;BME280;13176;51.140;6.290;2023-05-01T00:21:12;100999.56;;;16.81;54.54
25232;BME280;13176;51.140;6.290;2023-05-01T00:23:39;100995.75;;;16.65;54.04
25232;BME280;13176;51.140;6.290;2023-05-01T00:26:05;101015.44;;;16.79;54.60
25232;BME280;13176;51.140;6.290;2023-05-01T00:28:32;100897.84;;;16.25;54.88
25232;BME280;13176;51.140;6.290;2023-05-01T00:30:59;100866.03;;;15.79;54.77
25232;BME280;13176;51.140;6.290;2023-05-01T00:33:25;100979.31;;;16.57;55.01
25232;BME280;13176;51.140;6.290;2023-05-01T00:35:51;100893.28;;;16.04;55.02
25232;BME280;13176;51.140;6.290;2023-05-01T00:38:18;100966.31;;;16.52;54.86
25232;BME280;13176;51.140;6.290;2023-05-01T00:40:45;100943.84;;;16.41;55.27
25232;BME280;13176;51.140;6.290;2023-05-01T00:43:12;100958.53;;;16.48;55.53
25232;BME280;13176;51.140;6.290;2023-05-01T00:45:39;100984.41;;;16.63;55.79
25232;BME280;13176;51.140;6.290;2023-05-01T00:48:09;100981.03;;;16.58;55.53
25232;BME280;13176;51.140;6.290;2023-05-01T00:50:36;100969.97;;;16.48;55.88
25232;BME280;13176;51.140;6.290;2023-05-01T00:53:02;100852.50;;;15.65;56.42
25232;BME280;13176;51.140;6.290;2023-05-01T00:55:30;100960.16;;;16.26;56.41
25232;BME280;13176;51.140;6.290;2023-05-01T00:57:59;100969.53;;;16.34;56.12
25232;BME280;13176;51.140;6.290;2023-05-01T01:00:26;100837.47;;;15.41;57.43
25232;BME280;13176;51.140;6.290;2023-05-01T01:02:52;100914.03;;;15.87;57.46
25232;BME280;13176;51.140;6.290;2023-05-01T01:05:20;100956.16;;;16.13;57.92
25232;BME280;13176;51.140;6.290;2023-05-01T01:08:04;100772.19;;;14.97;57.73
25232;BME280;13176;51.140;6.290;2023-05-01T01:10:46;100951.19;;;16.04;57.84
25232;BME280;13176;51.140;6.290;2023-05-01T01:13:28;100953.03;;;16.02;58.45
25232;BME280;13176;51.140;6.290;2023-05-01T01:16:12;100935.09;;;15.87;58.30
25232;BME280;13176;51.140;6.290;2023-05-01T01:18:51;100946.25;;;15.95;58.25
25232;BME280;13176;51.140;6.290;2023-05-01T01:30:23;100937.72;;;15.87;58.33
25232;BME280;13176;51.140;6.290;2023-05-01T01:36:01;100930.44;;;15.95;58.18
25232;BME280;13176;51.140;6.290;2023-05-01T01:38:39;100905.16;;;15.90;58.38
25232;BME280;13176;51.140;6.290;2023-05-01T01:41:11;100806.09;;;15.35;58.19
25232;BME280;13176;51.140;6.290;2023-05-01T01:43:45;100772.66;;;15.11;58.07
25232;BME280;13176;51.140;6.290;2023-05-01T01:46:13;100878.28;;;15.80;58.62
25232;BME280;13176;51.140;6.290;2023-05-01T01:48:45;100758.94;;;15.02;58.85
25232;BME280;13176;51.140;6.290;2023-05-01T01:51:17;100915.47;;;15.97;59.18
25232;BME280;13176;51.140;6.290;2023-05-01T01:53:47;100751.09;;;15.00;58.77
25232;BME280;13176;51.140;6.290;2023-05-01T01:56:16;100904.88;;;15.98;59.23
25232;BME280;13176;51.140;6.290;2023-05-01T01:58:44;100895.63;;;15.87;58.83
25232;BME280;13176;51.140;6.290;2023-05-01T02:01:13;100776.63;;;15.24;59.44
25232;BME280;13176;51.140;6.290;2023-05-01T02:03:40;100884.00;;;15.93;59.64
25232;BME280;13176;51.140;6.290;2023-05-01T02:06:10;100893.88;;;15.86;59.27
25232;BME280;13176;51.140;6.290;2023-05-01T02:08:39;100861.16;;;15.67;59.63
25232;BME280;13176;51.140;6.290;2023-05-01T02:11:08;100808.00;;;15.30;59.87
25232;BME280;13176;51.140;6.290;2023-05-01T02:13:37;100771.84;;;15.09;60.25
25232;BME280;13176;51.140;6.290;2023-05-01T02:16:05;100763.50;;;14.95;59.87
25232;BME280;13176;51.140;6.290;2023-05-01T02:18:32;100727.28;;;14.78;59.97
25232;BME280;13176;51.140;6.290;2023-05-01T02:21:00;100854.78;;;15.48;59.45
25232;BME280;13176;51.140;6.290;2023-05-01T02:23:29;100776.56;;;14.98;60.52
25232;BME280;13176;51.140;6.290;2023-05-01T02:25:59;100859.94;;;15.51;59.90
25232;BME280;13176;51.140;6.290;2023-05-01T02:28:28;100873.72;;;15.59;60.37
25232;BME280;13176;51.140;6.290;2023-05-01T02:30:55;100768.72;;;14.97;59.40
25232;BME280;13176;51.140;6.290;2023-05-01T02:33:22;100841.06;;;15.39;60.26
25232;BME280;13176;51.140;6.290;2023-05-01T02:35:49;100866.13;;;15.50;59.66
25232;BME280;13176;51.140;6.290;2023-05-01T02:38:16;100718.13;;;14.62;59.98
25232;BME280;13176;51.140;6.290;2023-05-01T02:40:45;100714.75;;;14.58;61.06
25232;BME280;13176;51.140;6.290;2023-05-01T02:43:15;100746.50;;;14.80;60.97
25232;BME280;13176;51.140;6.290;2023-05-01T02:45:43;100733.00;;;14.63;61.33
25232;BME280;13176;51.140;6.290;2023-05-01T02:48:14;100702.63;;;14.54;61.05
25232;BME280;13176;51.140;6.290;2023-05-01T02:50:43;100807.66;;;15.12;60.80
25232;BME280;13176;51.140;6.290;2023-05-01T02:53:11;100832.47;;;15.32;61.56
25232;BME280;13176;51.140;6.290;2023-05-01T02:55:38;100754.19;;;14.85;61.04
25232;BME280;13176;51.140;6.290;2023-05-01T02:58:04;100693.25;;;14.46;61.03
25232;BME280;13176;51.140;6.290;2023-05-01T03:00:31;100687.38;;;14.38;61.54
25232;BME280;13176;51.140;6.290;2023-05-01T03:02:57;100694.59;;;14.30;62.05
25232;BME280;13176;51.140;6.290;2023-05-01T03:05:24;100657.81;;;14.01;61.90
25232;BME280;13176;51.140;6.290;2023-05-01T03:07:51;100694.00;;;14.20;61.54
25232;BME280;13176;51.140;6.290;2023-05-01T03:10:18;100720.59;;;14.39;61.89
25232;BME280;13176;51.140;6.290;2023-05-01T03:12:44;100601.72;;;13.74;61.90
25232;BME280;13176;51.140;6.290;2023-05-01T03:15:11;100813.00;;;14.82;61.65
25232;BME280;13176;51.140;6.290;2023-05-01T03:17:38;100806.56;;;14.91;62.32
25232;BME280;13176;51.140;6.290;2023-05-01T03:20:06;100769.59;;;14.69;61.33
25232;BME280;13176;51.140;6.290;2023-05-01T03:22:34;100744.81;;;14.48;62.10
25232;BME280;13176;51.140;6.290;2023-05-01T03:25:01;100670.03;;;14.02;62.24
25232;BME280;13176;51.140;6.290;2023-05-01T03:27:29;100773.13;;;14.68;62.92
25232;BME280;13176;51.140;6.290;2023-05-01T03:29:56;100656.16;;;13.97;62.71
25232;BME280;13176;51.140;6.290;2023-05-01T03:32:23;100785.34;;;14.69;62.68
25232;BME280;13176;51.140;6.290;2023-05-01T03:34:49;100701.03;;;14.20;62.06
25232;BME280;13176;51.140;6.290;2023-05-01T03:37:16;100787.53;;;14.55;62.39
25232;BME280;13176;51.140;6.290;2023-05-01T03:39:42;100697.47;;;13.89;63.09
25232;BME280;13176;51.140;6.290;2023-05-01T03:42:08;100644.28;;;13.54;63.65
25232;BME280;13176;51.140;6.290;2023-05-01T03:44:35;100648.84;;;13.47;64.40
25232;BME280;13176;51.140;6.290;2023-05-01T03:47:02;100700.38;;;13.80;64.97
25232;BME280;13176;51.140;6.290;2023-05-01T03:49:28;100763.72;;;14.30;64.87
25232;BME280;13176;51.140;6.290;2023-05-01T03:51:55;100768.75;;;14.38;65.07
25232;BME280;13176;51.140;6.290;2023-05-01T03:54:21;100696.25;;;14.02;64.73
25232;BME280;13176;51.140;6.290;2023-05-01T03:56:48;100759.88;;;14.42;64.35
25232;BME280;13176;51.140;6.290;2023-05-01T03:59:14;100682.25;;;14.03;64.50
25232;BME280;13176;51.140;6.290;2023-05-01T04:01:41;100682.16;;;14.06;64.53
25232;BME280;13176;51.140;6.290;2023-05-01T04:04:07;100744.31;;;14.36;64.52
25232;BME280;13176;51.140;6.290;2023-05-01T04:06:34;100649.66;;;13.81;64.66
25232;BME280;13176;51.140;6.290;2023-05-01T04:09:02;100733.16;;;14.28;64.36
25232;BME280;13176;51.140;6.290;2023-05-01T04:11:28;100766.88;;;14.43;63.94
25232;BME280;13176;51.140;6.290;2023-05-01T04:13:55;100750.09;;;14.18;64.76
25232;BME280;13176;51.140;6.290;2023-05-01T04:16:21;100652.25;;;13.49;66.00
25232;BME280;13176;51.140;6.290;2023-05-01T04:18:48;100739.88;;;14.06;64.54
25232;BME280;13176;51.140;6.290;2023-05-01T04:21:14;100746.56;;;14.19;64.89
25232;BME280;13176;51.140;6.290;2023-05-01T04:23:42;100729.31;;;14.09;64.96
25232;BME280;13176;51.140;6.290;2023-05-01T04:26:09;100641.44;;;13.61;65.24
25232;BME280;13176;51.140;6.290;2023-05-01T04:28:35;100664.66;;;13.76;65.22
25232;BME280;13176;51.140;6.290;2023-05-01T04:31:02;100744.63;;;14.24;64.97
25232;BME280;13176;51.140;6.290;2023-05-01T04:33:29;100654.97;;;13.78;64.47
25232;BME280;13176;51.140;6.290;2023-05-01T04:35:55;100753.81;;;14.40;64.50
25232;BME280;13176;51.140;6.290;2023-05-01T04:38:22;100571.44;;;13.33;64.51
25232;BME280;13176;51.140;6.290;2023-05-01T04:40:48;100759.72;;;14.48;64.59
25232;BME280;13176;51.140;6.290;2023-05-01T04:43:15;100775.00;;;14.63;64.64
25232;BME280;13176;51.140;6.290;2023-05-01T04:45:41;100643.88;;;13.99;64.25
25232;BME280;13176;51.140;6.290;2023-05-01T04:48:08;100672.16;;;14.20;64.24
25232;BME280;13176;51.140;6.290;2023-05-01T04:50:34;100764.06;;;14.78;64.17
25232;BME280;13176;51.140;6.290;2023-05-01T04:53:01;100726.03;;;14.62;64.29
25232;BME280;13176;51.140;6.290;2023-05-01T04:55:27;100754.38;;;14.80;64.79
25232;BME280;13176;51.140;6.290;2023-05-01T04:57:56;100768.75;;;14.95;64.50
25232;BME280;13176;51.140;6.290;2023-05-01T05:00:22;100716.78;;;14.78;64.81
25232;BME280;13176;51.140;6.290;2023-05-01T05:02:49;100649.72;;;14.39;64.27
25232;BME280;13176;51.140;6.290;2023-05-01T05:05:15;100762.75;;;15.19;64.48
25232;BME280;13176;51.140;6.290;2023-05-01T05:07:42;100761.69;;;15.25;63.73
25232;BME280;13176;51.140;6.290;2023-05-01T05:10:08;100647.88;;;14.70;63.92
25232;BME280;13176;51.140;6.290;2023-05-01T05:12:35;100714.47;;;15.22;63.33
25232;BME280;13176;51.140;6.290;2023-05-01T05:15:01;100736.00;;;15.34;62.69
25232;BME280;13176;51.140;6.290;2023-05-01T05:17:28;100606.66;;;14.72;61.57
25232;BME280;13176;51.140;6.290;2023-05-01T05:19:54;100740.47;;;15.58;60.94
25232;BME280;13176;51.140;6.290;2023-05-01T05:22:21;100726.50;;;15.56;60.22
25232;BME280;13176;51.140;6.290;2023-05-01T05:24:53;100755.94;;;15.93;59.93
25232;BME280;13176;51.140;6.290;2023-05-01T05:27:20;100755.00;;;15.94;60.19
25232;BME280;13176;51.140;6.290;2023-05-01T05:29:47;100684.31;;;15.59;59.46
25232;BME280;13176;51.140;6.290;2023-05-01T05:32:13;100739.31;;;15.91;59.52
25232;BME280;13176;51.140;6.290;2023-05-01T05:34:40;100708.25;;;15.76;60.01
25232;BME280;13176;51.140;6.290;2023-05-01T05:37:06;100740.84;;;15.98;59.92
25232;BME280;13176;51.140;6.290;2023-05-01T05:39:33;100740.84;;;15.98;60.04
25232;BME280;13176;51.140;6.290;2023-05-01T05:42:00;100641.34;;;15.34;60.43
25232;BME280;13176;51.140;6.290;2023-05-01T05:44:26;100656.59;;;15.49;60.42
25232;BME280;13176;51.140;6.290;2023-05-01T05:46:53;100746.09;;;15.98;59.87
25232;BME280;13176;51.140;6.290;2023-05-01T05:49:19;100757.31;;;16.03;59.71
25232;BME280;13176;51.140;6.290;2023-05-01T05:51:45;100748.25;;;16.11;58.77
25232;BME280;13176;51.140;6.290;2023-05-01T05:54:12;100753.41;;;16.14;58.83
25232;BME280;13176;51.140;6.290;2023-05-01T05:56:38;100721.09;;;16.09;58.66
25232;BME280;13176;51.140;6.290;2023-05-01T05:59:04;100749.34;;;16.29;58.78
25232;BME280;13176;51.140;6.290;2023-05-01T06:01:31;100752.03;;;16.52;56.99
25232;BME280;13176;51.140;6.290;2023-05-01T06:03:58;100675.84;;;16.00;56.79
25232;BME280;13176;51.140;6.290;2023-05-01T06:06:24;100732.50;;;16.34;57.67
25232;BME280;13176;51.140;6.290;2023-05-01T06:08:51;100739.88;;;16.48;57.38
25232;BME280;13176;51.140;6.290;2023-05-01T06:11:18;100730.75;;;16.35;57.28
25232;BME280;13176;51.140;6.290;2023-05-01T06:13:46;100632.75;;;15.78;57.20
25232;BME280;13176;51.140;6.290;2023-05-01T06:16:13;100712.97;;;16.40;57.22
25232;BME280;13176;51.140;6.290;2023-05-01T06:18:40;100768.19;;;16.66;57.60
25232;BME280;13176;51.140;6.290;2023-05-01T06:21:09;100715.16;;;16.52;56.50
25232;BME280;13176;51.140;6.290;2023-05-01T06:23:35;100747.34;;;16.60;57.22
25232;BME280;13176;51.140;6.290;2023-05-01T06:26:02;100725.53;;;16.56;56.94
25232;BME280;13176;51.140;6.290;2023-05-01T06:28:28;100725.94;;;16.69;56.59
25232;BME280;13176;51.140;6.290;2023-05-01T06:30:55;100698.25;;;16.57;56.74
25232;BME280;13176;51.140;6.290;2023-05-01T06:33:22;100634.41;;;16.28;56.42
25232;BME280;13176;51.140;6.290;2023-05-01T06:35:49;100558.41;;;15.96;56.61
25232;BME280;13176;51.140;6.290;2023-05-01T06:38:16;100627.22;;;16.33;56.52
25232;BME280;13176;51.140;6.290;2023-05-01T06:40:42;100697.75;;;16.71;56.75
25232;BME280;13176;51.140;6.290;2023-05-01T06:43:12;100743.22;;;16.97;57.74
25232;BME280;13176;51.140;6.290;2023-05-01T06:45:38;100576.81;;;16.19;55.51
25232;BME280;13176;51.140;6.290;2023-05-01T06:48:06;100639.50;;;16.55;55.38
25232;BME280;13176;51.140;6.290;2023-05-01T06:50:32;100609.47;;;16.38;55.54
25232;BME280;13176;51.140;6.290;2023-05-01T06:52:59;100612.63;;;16.46;55.79
25232;BME280;13176;51.140;6.290;2023-05-01T06:55:27;100723.13;;;17.16;55.51
25232;BME280;13176;51.140;6.290;2023-05-01T06:58:01;100675.91;;;16.89;56.95
25232;BME280;13176;51.140;6.290;2023-05-01T07:00:40;100711.84;;;17.13;56.41
25232;BME280;13176;51.140;6.290;2023-05-01T07:03:09;100650.19;;;16.74;56.90
25232;BME280;13176;51.140;6.290;2023-05-01T07:05:36;100621.34;;;16.48;56.12
25232;BME280;13176;51.140;6.290;2023-05-01T07:08:02;100632.13;;;16.63;55.77
25232;BME280;13176;51.140;6.290;2023-05-01T07:10:31;100587.66;;;16.56;55.10
25232;BME280;13176;51.140;6.290;2023-05-01T07:12:58;100639.31;;;16.81;55.22
25232;BME280;13176;51.140;6.290;2023-05-01T07:15:25;100673.47;;;17.06;56.70
25232;BME280;13176;51.140;6.290;2023-05-01T07:17:51;100612.91;;;16.61;55.13
25232;BME280;13176;51.140;6.290;2023-05-01T07:20:18;100635.56;;;16.87;55.32
25232;BME280;13176;51.140;6.290;2023-05-01T07:22:44;100706.09;;;17.46;54.86
25232;BME280;13176;51.140;6.290;2023-05-01T07:25:11;100657.00;;;17.20;54.89
25232;BME280;13176;51.140;6.290;2023-05-01T07:27:37;100608.25;;;16.89;54.48
25232;BME280;13176;51.140;6.290;2023-05-01T07:30:04;100619.69;;;17.10;54.72
25232;BME280;13176;51.140;6.290;2023-05-01T07:32:30;100660.81;;;17.35;54.39
25232;BME280;13176;51.140;6.290;2023-05-01T07:34:58;100733.25;;;17.89;54.51
25232;BME280;13176;51.140;6.290;2023-05-01T07:37:24;100757.59;;;18.16;54.68
25232;BME280;13176;51.140;6.290;2023-05-01T07:39:52;100765.19;;;18.23;54.68
25232;BME280;13176;51.140;6.290;2023-05-01T07:42:18;100733.03;;;18.14;54.57
25232;BME280;13176;51.140;6.290;2023-05-01T07:44:45;100672.41;;;17.72;54.36
25232;BME280;13176;51.140;6.290;2023-05-01T07:47:11;100618.28;;;17.62;53.67
25232;BME280;13176;51.140;6.290;2023-05-01T07:49:37;100655.47;;;17.96;53.37
25232;BME280;13176;51.140;6.290;2023-05-01T07:52:04;100676.47;;;18.19;52.51
25232;BME280;13176;51.140;6.290;2023-05-01T07:54:33;100629.81;;;18.00;52.05
25232;BME280;13176;51.140;6.290;2023-05-01T07:56:59;100757.53;;;18.57;52.26
25232;BME280;13176;51.140;6.290;2023-05-01T07:59:27;100735.44;;;18.58;52.19
25232;BME280;13176;51.140;6.290;2023-05-01T08:01:53;100737.16;;;18.77;51.84
25232;BME280;13176;51.140;6.290;2023-05-01T08:04:20;100751.16;;;18.98;52.05
25232;BME280;13176;51.140;6.290;2023-05-01T08:06:49;100747.16;;;19.08;53.42
25232;BME280;13176;51.140;6.290;2023-05-01T08:09:16;100735.41;;;19.15;53.84
25232;BME280;13176;51.140;6.290;2023-05-01T08:11:43;100714.78;;;19.03;52.96
25232;BME280;13176;51.140;6.290;2023-05-01T08:14:09;100642.59;;;18.82;52.17
25232;BME280;13176;51.140;6.290;2023-05-01T08:16:36;100638.50;;;18.94;52.40
25232;BME280;13176;51.140;6.290;2023-05-01T08:19:02;100753.50;;;19.76;52.29
25232;BME280;13176;51.140;6.290;2023-05-01T08:21:29;100607.94;;;18.88;51.00
25232;BME280;13176;51.140;6.290;2023-05-01T08:23:56;100732.84;;;19.82;51.14
25232;BME280;13176;51.140;6.290;2023-05-01T08:26:22;100639.69;;;19.41;50.16
25232;BME280;13176;51.140;6.290;2023-05-01T08:28:49;100742.34;;;20.03;49.72
25232;BME280;13176;51.140;6.290;2023-05-01T08:31:16;100733.81;;;19.98;50.05
25232;BME280;13176;51.140;6.290;2023-05-01T08:33:47;100643.66;;;19.49;50.68
25232;BME280;13176;51.140;6.290;2023-05-01T08:37:02;100652.69;;;19.79;51.49
25232;BME280;13176;51.140;6.290;2023-05-01T08:39:31;100723.38;;;20.45;50.95
25232;BME280;13176;51.140;6.290;2023-05-01T08:42:04;100740.69;;;20.67;49.42
25232;BME280;13176;51.140;6.290;2023-05-01T08:44:52;100734.50;;;20.51;47.78
25232;BME280;13176;51.140;6.290;2023-05-01T08:51:25;100741.47;;;20.37;46.34
25232;BME280;13176;51.140;6.290;2023-05-01T08:54:00;100712.91;;;20.42;46.02
25232;BME280;13176;51.140;6.290;2023-05-01T08:56:55;100661.25;;;20.33;45.89
25232;BME280;13176;51.140;6.290;2023-05-01T09:03:03;100702.47;;;21.17;46.32
25232;BME280;13176;51.140;6.290;2023-05-01T09:05:31;100660.41;;;20.79;46.59
25232;BME280;13176;51.140;6.290;2023-05-01T09:07:59;100712.22;;;21.01;46.24
25232;BME280;13176;51.140;6.290;2023-05-01T09:10:32;100708.91;;;20.98;44.46
25232;BME280;13176;51.140;6.290;2023-05-01T09:13:26;100658.22;;;20.87;46.17
25232;BME280;13176;51.140;6.290;2023-05-01T09:16:34;100736.28;;;21.14;44.44
25232;BME280;13176;51.140;6.290;2023-05-01T09:19:50;100717.25;;;20.75;43.55
25232;BME280;13176;51.140;6.290;2023-05-01T09:22:33;100728.75;;;21.22;42.92
25232;BME280;13176;51.140;6.290;2023-05-01T09:25:01;100587.88;;;20.49;42.65
25232;BME280;13176;51.140;6.290;2023-05-01T09:27:33;100632.38;;;20.75;42.79
25232;BME280;13176;51.140;6.290;2023-05-01T09:30:00;100637.16;;;20.84;43.36
25232;BME280;13176;51.140;6.290;2023-05-01T09:32:26;100679.56;;;21.30;43.27
25232;BME280;13176;51.140;6.290;2023-05-01T09:34:55;100723.94;;;21.44;42.96
25232;BME280;13176;51.140;6.290;2023-05-01T09:48:38;100697.56;;;22.27;42.65
25232;BME280;13176;51.140;6.290;2023-05-01T09:54:25;100705.03;;;22.36;43.22
25232;BME280;13176;51.140;6.290;2023-05-01T10:00:04;100631.69;;;22.04;43.59
25232;BME280;13176;51.140;6.290;2023-05-01T10:02:35;100621.31;;;21.86;44.74
25232;BME280;13176;51.140;6.290;2023-05-01T10:05:03;100574.72;;;21.94;42.61
25232;BME280;13176;51.140;6.290;2023-05-01T10:07:29;100661.97;;;22.44;44.24
25232;BME280;13176;51.140;6.290;2023-05-01T10:09:56;100729.53;;;22.83;42.68
25232;BME280;13176;51.140;6.290;2023-05-01T10:12:51;100725.78;;;23.40;42.17
25232;BME280;13176;51.140;6.290;2023-05-01T10:15:37;100648.63;;;23.26;41.59
25232;BME280;13176;51.140;6.290;2023-05-01T10:22:03;100680.31;;;23.82;43.08
25232;BME280;13176;51.140;6.290;2023-05-01T10:24:30;100681.19;;;23.17;39.18
25232;BME280;13176;51.140;6.290;2023-05-01T10:26:59;100700.69;;;23.56;40.25
25232;BME280;13176;51.140;6.290;2023-05-01T10:29:28;100704.78;;;23.62;39.97
25232;BME280;13176;51.140;6.290;2023-05-01T10:31:55;100707.84;;;23.95;40.33
25232;BME280;13176;51.140;6.290;2023-05-01T10:34:22;100632.13;;;23.46;39.40
25232;BME280;13176;51.140;6.290;2023-05-01T10:37:03;100690.34;;;23.91;40.39
25232;BME280;13176;51.140;6.290;2023-05-01T10:39:33;100653.06;;;23.64;39.76
25232;BME280;13176;51.140;6.290;2023-05-01T10:42:07;100702.59;;;23.93;40.36
25232;BME280;13176;51.140;6.290;2023-05-01T10:44:40;100706.28;;;24.17;39.16
25232;BME280;13176;51.140;6.290;2023-05-01T10:50:06;100636.59;;;25.52;36.15
25232;BME280;13176;51.140;6.290;2023-05-01T10:55:45;100691.56;;;27.76;35.40
25232;BME280;13176;51.140;6.290;2023-05-01T10:58:53;100681.59;;;28.58;31.67
25232;BME280;13176;51.140;6.290;2023-05-01T11:01:41;100682.00;;;29.60;27.87
25232;BME280;13176;51.140;6.290;2023-05-01T11:12:47;100653.88;;;28.27;28.05
25232;BME280;13176;51.140;6.290;2023-05-01T11:15:02;100641.56;;;28.85;28.46
25232;BME280;13176;51.140;6.290;2023-05-01T11:20:13;100595.63;;;28.58;26.31
25232;BME280;13176;51.140;6.290;2023-05-01T11:22:55;100603.91;;;28.36;28.58
25232;BME280;13176;51.140;6.290;2023-05-01T11:25:25;100671.47;;;28.41;28.57
25232;BME280;13176;51.140;6.290;2023-05-01T11:27:57;100641.75;;;28.03;27.43
25232;BME280;13176;51.140;6.290;2023-05-01T11:30:24;100651.03;;;28.49;27.24
25232;BME280;13176;51.140;6.290;2023-05-01T11:32:51;100652.03;;;27.78;27.87
25232;BME280;13176;51.140;6.290;2023-05-01T11:37:45;100569.47;;;27.70;29.54
25232;BME280;13176;51.140;6.290;2023-05-01T11:40:26;100669.94;;;28.18;29.67
25232;BME280;13176;51.140;6.290;2023-05-01T11:43:04;100642.66;;;27.72;29.86
25232;BME280;13176;51.140;6.290;2023-05-01T11:45:35;100676.28;;;27.96;30.77
25232;BME280;13176;51.140;6.290;2023-05-01T11:48:02;100634.63;;;27.09;29.67
25232;BME280;13176;51.140;6.290;2023-05-01T11:50:35;100619.81;;;25.96;30.88
25232;BME280;13176;51.140;6.290;2023-05-01T11:53:03;100601.41;;;25.35;33.50
25232;BME280;13176;51.140;6.290;2023-05-01T11:55:37;100669.16;;;24.87;35.74
25232;BME280;13176;51.140;6.290;2023-05-01T11:58:06;100685.88;;;24.53;36.70
25232;BME280;13176;51.140;6.290;2023-05-01T12:00:45;100681.59;;;23.89;38.94
25232;BME280;13176;51.140;6.290;2023-05-01T12:03:15;100589.31;;;23.10;38.66
25232;BME280;13176;51.140;6.290;2023-05-01T12:05:43;100592.63;;;22.87;39.27
25232;BME280;13176;51.140;6.290;2023-05-01T12:08:18;100683.56;;;23.34;41.01
25232;BME280;13176;51.140;6.290;2023-05-01T12:10:53;100672.59;;;23.65;39.88
25232;BME280;13176;51.140;6.290;2023-05-01T12:13:22;100649.28;;;24.06;38.27
25232;BME280;13176;51.140;6.290;2023-05-01T12:15:51;100675.16;;;25.38;36.46
25232;BME280;13176;51.140;6.290;2023-05-01T12:18:18;100579.69;;;25.85;33.12
25232;BME280;13176;51.140;6.290;2023-05-01T12:20:48;100634.88;;;25.86;34.41
25232;BME280;13176;51.140;6.290;2023-05-01T12:23:19;100634.78;;;26.42;34.67
25232;BME280;13176;51.140;6.290;2023-05-01T12:25:54;100638.59;;;26.18;35.12
25232;BME280;13176;51.140;6.290;2023-05-01T12:28:21;100582.88;;;26.12;36.40
25232;BME280;13176;51.140;6.290;2023-05-01T12:30:48;100659.81;;;28.01;32.99
25232;BME280;13176;51.140;6.290;2023-05-01T12:33:19;100644.34;;;28.74;32.61
25232;BME280;13176;51.140;6.290;2023-05-01T12:35:47;100650.97;;;30.04;30.90
25232;BME280;13176;51.140;6.290;2023-05-01T12:38:21;100628.56;;;29.94;30.53
25232;BME280;13176;51.140;6.290;2023-05-01T12:40:53;100647.72;;;29.72;31.70
25232;BME280;13176;51.140;6.290;2023-05-01T12:43:29;100653.81;;;29.74;29.25
25232;BME280;13176;51.140;6.290;2023-05-01T12:45:56;100643.25;;;30.64;26.22
25232;BME280;13176;51.140;6.290;2023-05-01T12:48:23;100542.50;;;30.38;28.30
25232;BME280;13176;51.140;6.290;2023-05-01T12:50:50;100481.09;;;29.78;26.59
25232;BME280;13176;51.140;6.290;2023-05-01T12:53:24;100542.97;;;28.95;27.73
25232;BME280;13176;51.140;6.290;2023-05-01T12:55:54;100448.34;;;27.45;29.11
25232;BME280;13176;51.140;6.290;2023-05-01T12:58:21;100518.41;;;26.99;30.70
25232;BME280;13176;51.140;6.290;2023-05-01T13:03:21;100575.81;;;26.11;33.60
25232;BME280;13176;51.140;6.290;2023-05-01T13:05:56;100640.38;;;26.06;31.82
25232;BME280;13176;51.140;6.290;2023-05-01T13:08:35;100647.16;;;25.88;33.27
25232;BME280;13176;51.140;6.290;2023-05-01T13:13:36;100641.69;;;24.85;35.32
25232;BME280;13176;51.140;6.290;2023-05-01T13:16:15;100656.84;;;24.12;37.07
25232;BME280;13176;51.140;6.290;2023-05-01T13:18:48;100558.47;;;23.20;38.83
25232;BME280;13176;51.140;6.290;2023-05-01T13:21:24;100575.94;;;23.24;40.36
25232;BME280;13176;51.140;6.290;2023-05-01T13:23:54;100487.31;;;21.76;42.33
25232;BME280;13176;51.140;6.290;2023-05-01T13:26:39;100668.19;;;22.44;43.07
25232;BME280;13176;51.140;6.290;2023-05-01T13:29:05;100684.56;;;22.23;42.60
25232;BME280;13176;51.140;6.290;2023-05-01T13:31:32;100632.06;;;22.12;42.20
25232;BME280;13176;51.140;6.290;2023-05-01T13:33:59;100694.97;;;22.41;42.22
25232;BME280;13176;51.140;6.290;2023-05-01T13:36:29;100701.22;;;21.83;43.74
25232;BME280;13176;51.140;6.290;2023-05-01T13:38:57;100701.69;;;21.31;44.89
25232;BME280;13176;51.140;6.290;2023-05-01T13:41:25;100671.44;;;21.33;45.33
25232;BME280;13176;51.140;6.290;2023-05-01T13:43:53;100715.91;;;21.30;45.99
25232;BME280;13176;51.140;6.290;2023-05-01T13:46:22;100722.75;;;21.34;46.46
25232;BME280;13176;51.140;6.290;2023-05-01T13:48:49;100715.03;;;21.45;44.04
25232;BME280;13176;51.140;6.290;2023-05-01T13:51:21;100681.47;;;21.13;43.95
25232;BME280;13176;51.140;6.290;2023-05-01T13:53:48;100695.38;;;20.87;44.53
25232;BME280;13176;51.140;6.290;2023-05-01T13:56:15;100669.78;;;20.86;44.46
25232;BME280;13176;51.140;6.290;2023-05-01T13:58:42;100700.50;;;21.21;43.89
25232;BME280;13176;51.140;6.290;2023-05-01T14:01:14;100705.44;;;21.27;45.04
25232;BME280;13176;51.140;6.290;2023-05-01T14:03:41;100697.88;;;21.50;44.48
25232;BME280;13176;51.140;6.290;2023-05-01T14:06:18;100715.03;;;21.45;45.65
25232;BME280;13176;51.140;6.290;2023-05-01T14:08:46;100713.16;;;21.47;45.81